No particular awareness of the weather is required.    There are no Weather-warnings


Meteo18 Weather Cam more information Meteo18 Weather Cam


Thunder radar more information blitzortung!


Rain radar more information rain snow radar


Visit our other weather sites:

Template documentation
and downloads

And another site



Weather Underground History page Text

Daily Summary for July 16, 2017 Units:  English    Metric   Both
« Previous Day
Next Day »
Daily Weekly Monthly Yearly Custom
  High: Low: Average:
Temperature: TemperatureC °F 13.9 °F 22.3 °F
Dew Point: DewpointC °F 11.6 °F 13.9 °F
Humidity: Humidity % 42 % 61 %
Wind Speed: WindSpeedKMH mph 0.0 mph 3.1 mph
Wind Gust: WindSpeedGustKMH mph - -
Wind:- - SE
Pressure: PressurehPa in 1022.2 in -
Precipitation: 0.0 in    
Historical Graphs
 
 
Tabular Data for July 16, 2017
Time Temperature Dew Point Pressure Wind Wind Speed Wind Gust Humidity Rainfall Rate (Hourly)
TemperatureC °F DewpointC °F PressurehPa in Calm     Humidity % HourlyPrecipMM in
00:02 17.3 °F 12.2 °F 1025.3 in Calm     72 % 0.0 in
00:07 17.2 °F 12.1 °F 1025.3 in Calm     72 % 0.0 in
00:12 17.1 °F 12.2 °F 1025.3 in Calm   1.6 mph 73 % 0.0 in
00:17 16.9 °F 12.2 °F 1025.3 in Calm   1.6 mph 74 % 0.0 in
00:22 16.9 °F 12.2 °F 1025.3 in Calm   1.6 mph 74 % 0.0 in
00:32 17.1 °F 12.2 °F 1025.3 in Calm   1.6 mph 73 % 0.0 in
00:37 16.9 °F 12.2 °F 1025.3 in Calm   1.6 mph 74 % 0.0 in
00:42 16.8 °F 12.3 °F 1025.3 in Calm   1.6 mph 75 % 0.0 in
00:52 16.6 °F 12.1 °F 1024.9 in Calm     75 % 0.0 in
00:57 16.4 °F 12.2 °F 1024.9 in WNW 1.6 mph 1.6 mph 76 % 0.0 in
01:02 16.4 °F 12.4 °F 1024.9 in WNW 1.6 mph 1.6 mph 77 % 0.0 in
01:12 16.1 °F 12.3 °F 1024.9 in Calm   3.2 mph 78 % 0.0 in
01:17 16.1 °F 12.3 °F 1024.9 in WNW 1.6 mph 3.2 mph 78 % 0.0 in
01:22 15.9 °F 12.1 °F 1025.3 in Calm   3.2 mph 78 % 0.0 in
01:27 15.9 °F 12.3 °F 1024.9 in Calm   1.6 mph 79 % 0.0 in
01:32 15.9 °F 12.3 °F 1025.3 in Calm   1.6 mph 79 % 0.0 in
01:37 15.8 °F 12.2 °F 1025.3 in Calm     79 % 0.0 in
01:42 15.8 °F 12.2 °F 1024.9 in Calm     79 % 0.0 in
01:47 15.7 °F 12.1 °F 1024.9 in Calm     79 % 0.0 in
01:52 15.7 °F 12.1 °F 1024.9 in Calm   1.6 mph 79 % 0.0 in
01:57 15.8 °F 12.2 °F 1024.9 in Calm   1.6 mph 79 % 0.0 in
02:02 15.7 °F 12.1 °F 1024.9 in North 1.6 mph 1.6 mph 79 % 0.0 in
02:12 15.6 °F 12.2 °F 1025.3 in Calm   1.6 mph 80 % 0.0 in
02:17 15.5 °F 12.1 °F 1025.3 in NNE 1.6 mph 1.6 mph 80 % 0.0 in
02:22 15.4 °F 12.0 °F 1025.3 in Calm   1.6 mph 80 % 0.0 in
02:27 15.4 °F 12.2 °F 1025.3 in Calm   1.6 mph 81 % 0.0 in
02:32 15.3 °F 12.1 °F 1025.3 in Calm   1.6 mph 81 % 0.0 in
02:37 15.1 °F 12.0 °F 1024.9 in Calm   1.6 mph 82 % 0.0 in
02:42 14.9 °F 12.0 °F 1024.9 in WNW 1.6 mph 1.6 mph 83 % 0.0 in
02:47 14.8 °F 11.9 °F 1025.3 in Calm   1.6 mph 83 % 0.0 in
02:52 14.8 °F 11.9 °F 1024.9 in Calm   1.6 mph 83 % 0.0 in
02:57 14.7 °F 12.0 °F 1025.3 in Calm   1.6 mph 84 % 0.0 in
03:02 14.8 °F 12.1 °F 1025.3 in Calm     84 % 0.0 in
03:07 15.1 °F 12.2 °F 1025.3 in Calm     83 % 0.0 in
03:12 15.1 °F 12.0 °F 1025.3 in Calm     82 % 0.0 in
03:17 15.0 °F 12.0 °F 1024.9 in Calm     82 % 0.0 in
03:22 14.9 °F 12.0 °F 1024.9 in Calm     83 % 0.0 in
03:27 14.8 °F 11.9 °F 1024.9 in Calm     83 % 0.0 in
03:32 14.7 °F 12.0 °F 1025.3 in Calm     84 % 0.0 in
03:37 14.5 °F 11.8 °F 1025.3 in Calm     84 % 0.0 in
03:42 14.3 °F 11.8 °F 1025.3 in Calm     85 % 0.0 in
03:47 14.2 °F 11.7 °F 1025.3 in Calm     85 % 0.0 in
03:52 14.2 °F 11.9 °F 1025.3 in Calm     86 % 0.0 in
03:57 14.2 °F 11.9 °F 1025.3 in Calm     86 % 0.0 in
04:02 14.2 °F 11.9 °F 1025.3 in Calm     86 % 0.0 in
04:12 14.3 °F 12.0 °F 1025.3 in Calm     86 % 0.0 in
04:17 14.3 °F 11.8 °F 1025.3 in Calm     85 % 0.0 in
04:22 14.2 °F 11.7 °F 1025.3 in Calm     85 % 0.0 in
04:32 14.4 °F 11.7 °F 1025.3 in Calm     84 % 0.0 in
04:37 14.4 °F 11.7 °F 1025.3 in Calm     84 % 0.0 in
04:42 14.4 °F 11.7 °F 1025.3 in Calm     84 % 0.0 in
04:47 14.4 °F 11.7 °F 1025.3 in Calm     84 % 0.0 in
04:52 14.4 °F 11.7 °F 1025.3 in Calm     84 % 0.0 in
04:57 14.4 °F 11.7 °F 1025.3 in Calm     84 % 0.0 in
05:02 14.3 °F 11.6 °F 1025.3 in Calm     84 % 0.0 in
05:12 14.2 °F 11.7 °F 1025.3 in Calm     85 % 0.0 in
05:17 14.2 °F 11.7 °F 1025.3 in Calm     85 % 0.0 in
05:22 14.1 °F 11.6 °F 1025.3 in Calm     85 % 0.0 in
05:32 13.9 °F 11.6 °F 1025.3 in Calm     86 % 0.0 in
05:42 13.9 °F 11.6 °F 1025.3 in Calm     86 % 0.0 in
05:47 13.9 °F 11.6 °F 1025.3 in Calm     86 % 0.0 in
05:52 13.9 °F 11.6 °F 1025.3 in Calm     86 % 0.0 in
05:57 14.1 °F 12.0 °F 1025.3 in Calm     87 % 0.0 in
06:02 14.2 °F 12.1 °F 1025.3 in Calm     87 % 0.0 in
06:12 14.3 °F 12.2 °F 1025.3 in Calm     87 % 0.0 in
06:17 14.3 °F 12.0 °F 1025.3 in Calm     86 % 0.0 in
06:22 14.4 °F 12.1 °F 1025.3 in Calm     86 % 0.0 in
06:32 14.7 °F 12.6 °F 1025.3 in Calm     87 % 0.0 in
06:42 14.9 °F 12.8 °F 1025.3 in Calm     87 % 0.0 in
06:47 14.9 °F 12.6 °F 1025.3 in Calm     86 % 0.0 in
06:52 15.0 °F 12.7 °F 1025.3 in Calm     86 % 0.0 in
06:57 15.1 °F 13.0 °F 1025.6 in Calm     87 % 0.0 in
07:02 15.1 °F 12.6 °F 1025.6 in Calm     85 % 0.0 in
07:12 15.1 °F 13.0 °F 1025.6 in Calm     87 % 0.0 in
07:17 15.1 °F 13.0 °F 1025.6 in Calm     87 % 0.0 in
07:22 15.2 °F 13.2 °F 1025.6 in Calm     88 % 0.0 in
07:27 15.2 °F 13.4 °F 1025.6 in Calm     89 % 0.0 in
07:32 15.3 °F 13.3 °F 1025.6 in Calm     88 % 0.0 in
07:42 15.6 °F 13.4 °F 1026.0 in Calm     87 % 0.0 in
07:52 15.8 °F 13.3 °F 1026.0 in Calm     85 % 0.0 in
07:57 16.1 °F 13.6 °F 1026.0 in Calm     85 % 0.0 in
08:02 16.4 °F 13.7 °F 1026.0 in Calm     84 % 0.0 in
08:12 17.2 °F 14.1 °F 1026.0 in Calm     82 % 0.0 in
08:17 17.6 °F 14.1 °F 1026.0 in Calm     80 % 0.0 in
08:22 17.8 °F 13.9 °F 1026.0 in Calm     78 % 0.0 in
08:32 18.2 °F 13.9 °F 1026.0 in Calm     76 % 0.0 in
08:37 18.4 °F 13.9 °F 1026.0 in Calm     75 % 0.0 in
08:42 18.6 °F 13.9 °F 1026.0 in Calm     74 % 0.0 in
08:47 18.9 °F 14.0 °F 1026.0 in Calm     73 % 0.0 in
08:52 19.3 °F 13.5 °F 1026.0 in Calm     69 % 0.0 in
08:57 19.6 °F 13.5 °F 1026.0 in Calm     68 % 0.0 in
09:02 20.0 °F 13.7 °F 1026.0 in Calm     67 % 0.0 in
09:12 21.2 °F 13.9 °F 1026.0 in Calm     63 % 0.0 in
09:17 21.6 °F 13.8 °F 1026.0 in Calm     61 % 0.0 in
09:27 22.2 °F 14.1 °F 1026.0 in Calm   3.2 mph 60 % 0.0 in
09:32 22.3 °F 13.6 °F 1026.0 in SSW 1.6 mph 3.2 mph 58 % 0.0 in
09:37 22.8 °F 13.8 °F 1026.0 in Calm   3.2 mph 57 % 0.0 in
09:42 22.8 °F 13.0 °F 1026.0 in SSW 1.6 mph 3.2 mph 54 % 0.0 in
09:47 22.9 °F 13.1 °F 1026.0 in Calm   4.8 mph 54 % 0.0 in
09:52 23.3 °F 13.2 °F 1026.0 in South 1.6 mph 4.8 mph 53 % 0.0 in
09:57 23.4 °F 13.0 °F 1026.0 in SSW 1.6 mph 4.8 mph 52 % 0.0 in
10:02 23.4 °F 13.0 °F 1026.0 in SSW 3.2 mph 4.8 mph 52 % 0.0 in
10:12 23.4 °F 13.0 °F 1026.0 in Calm   4.8 mph 52 % 0.0 in
10:17 23.5 °F 12.8 °F 1026.0 in SW 1.6 mph 4.8 mph 51 % 0.0 in
10:22 23.8 °F 13.1 °F 1026.0 in SSE 1.6 mph 4.8 mph 51 % 0.0 in
10:27 23.9 °F 13.1 °F 1026.0 in West 1.6 mph 4.8 mph 51 % 0.0 in
10:32 24.1 °F 13.3 °F 1025.6 in Calm   4.8 mph 51 % 0.0 in
10:37 24.6 °F 12.9 °F 1026.0 in NE 3.2 mph 4.8 mph 48 % 0.0 in
10:42 24.5 °F 12.8 °F 1025.6 in East 6.4 mph 6.4 mph 48 % 0.0 in
10:47 24.3 °F 12.6 °F 1025.6 in ESE 1.6 mph 8.0 mph 48 % 0.0 in
10:52 24.5 °F 13.4 °F 1025.6 in East 3.2 mph 9.7 mph 50 % 0.0 in
11:02 25.0 °F 12.9 °F 1025.6 in East 3.2 mph 9.7 mph 47 % 0.0 in
11:12 24.9 °F 12.8 °F 1025.6 in Calm   6.4 mph 47 % 0.0 in
11:17 25.2 °F 13.1 °F 1025.6 in NNE 6.4 mph 9.7 mph 47 % 0.0 in
11:22 25.1 °F 13.0 °F 1025.6 in WSW 1.6 mph 9.7 mph 47 % 0.0 in
11:27 25.2 °F 13.4 °F 1025.6 in ENE 3.2 mph 12.9 mph 48 % 0.0 in
11:32 25.3 °F 13.2 °F 1025.3 in ENE 8.0 mph 12.9 mph 47 % 0.0 in
11:42 25.4 °F 13.3 °F 1025.3 in ENE 4.8 mph 14.5 mph 47 % 0.0 in
11:52 25.3 °F 13.5 °F 1025.6 in East 4.8 mph 12.9 mph 48 % 0.0 in
11:57 25.6 °F 13.5 °F 1025.3 in East 1.6 mph 17.7 mph 47 % 0.0 in
12:02 25.7 °F 13.9 °F 1025.3 in ESE 3.2 mph 17.7 mph 48 % 0.0 in
12:12 25.9 °F 13.4 °F 1025.3 in NNW 4.8 mph 12.9 mph 46 % 0.0 in
12:17 25.7 °F 13.2 °F 1025.3 in SSE 1.6 mph 14.5 mph 46 % 0.0 in
12:22 26.2 °F 14.0 °F 1025.3 in ENE 6.4 mph 14.5 mph 47 % 0.0 in
12:32 26.1 °F 13.6 °F 1025.3 in ENE 6.4 mph 14.5 mph 46 % 0.0 in
12:42 26.5 °F 13.6 °F 1025.3 in ENE 6.4 mph 12.9 mph 45 % 0.0 in
12:52 26.7 °F 14.1 °F 1025.3 in NNW 1.6 mph 14.5 mph 46 % 0.0 in
13:02 26.8 °F 14.2 °F 1024.9 in ENE 3.2 mph 16.1 mph 46 % 0.0 in
13:12 27.0 °F 14.4 °F 1024.9 in North 11.3 mph 12.9 mph 46 % 0.0 in
13:17 27.1 °F 14.1 °F 1024.9 in North 14.5 mph 20.9 mph 45 % 0.0 in
13:22 27.0 °F 14.1 °F 1024.9 in NW 8.0 mph 22.5 mph 45 % 0.0 in
13:32 26.8 °F 14.2 °F 1024.9 in Calm   20.9 mph 46 % 0.0 in
13:42 27.1 °F 14.1 °F 1024.9 in West 1.6 mph 16.1 mph 45 % 0.0 in
13:47 27.0 °F 14.7 °F 1024.6 in Calm   16.1 mph 47 % 0.0 in
13:52 27.4 °F 14.8 °F 1024.6 in Calm   16.1 mph 46 % 0.0 in
13:57 27.8 °F 15.1 °F 1024.6 in NNE 19.3 mph 19.3 mph 46 % 0.0 in
14:02 27.2 °F 14.6 °F 1024.6 in ESE 4.8 mph 20.9 mph 46 % 0.0 in
14:07 27.2 °F 14.6 °F 1024.6 in ENE 9.7 mph 20.9 mph 46 % 0.0 in
14:12 27.2 °F 15.2 °F 1024.6 in NE 12.9 mph 20.9 mph 48 % 0.0 in
14:17 27.5 °F 14.8 °F 1024.6 in NE 12.9 mph 19.3 mph 46 % 0.0 in
14:22 27.3 °F 15.0 °F 1024.6 in NNE 4.8 mph 25.7 mph 47 % 0.0 in
14:27 27.7 °F 15.0 °F 1024.6 in NE 4.8 mph 25.7 mph 46 % 0.0 in
14:32 27.6 °F 15.3 °F 1024.6 in NE 4.8 mph 17.7 mph 47 % 0.0 in
14:37 27.6 °F 15.3 °F 1024.3 in ENE 12.9 mph 17.7 mph 47 % 0.0 in
14:42 27.9 °F 15.2 °F 1024.3 in NE 8.0 mph 17.7 mph 46 % 0.0 in
14:47 28.1 °F 15.4 °F 1024.3 in NE 1.6 mph 17.7 mph 46 % 0.0 in
14:52 28.4 °F 16.0 °F 1024.3 in North 11.3 mph 19.3 mph 47 % 0.0 in
14:57 28.3 °F 15.6 °F 1024.3 in NNE 8.0 mph 19.3 mph 46 % 0.0 in
15:02 28.1 °F 15.0 °F 1024.3 in ENE 6.4 mph 19.3 mph 45 % 0.0 in
15:07 28.1 °F 15.0 °F 1024.3 in ENE 6.4 mph 16.1 mph 45 % 0.0 in
15:12 28.0 °F 15.3 °F 1024.3 in ENE 8.0 mph 16.1 mph 46 % 0.0 in
15:17 28.1 °F 15.4 °F 1024.3 in NE 17.7 mph 24.1 mph 46 % 0.0 in
15:22 28.1 °F 15.0 °F 1024.3 in East 6.4 mph 24.1 mph 45 % 0.0 in
15:27 28.1 °F 15.4 °F 1024.3 in NNE 11.3 mph 19.3 mph 46 % 0.0 in
15:32 28.2 °F 15.5 °F 1024.3 in NW 3.2 mph 19.3 mph 46 % 0.0 in
15:37 28.4 °F 15.3 °F 1024.3 in Calm   20.9 mph 45 % 0.0 in
15:42 28.7 °F 15.6 °F 1024.3 in East 6.4 mph 20.9 mph 45 % 0.0 in
15:47 29.1 °F 15.2 °F 1024.3 in NW 9.7 mph 20.9 mph 43 % 0.0 in
15:52 28.9 °F 15.4 °F 1024.3 in ENE 9.7 mph 14.5 mph 44 % 0.0 in
15:57 28.7 °F 15.6 °F 1023.9 in ENE 12.9 mph 14.5 mph 45 % 0.0 in
16:02 28.3 °F 15.2 °F 1023.9 in NE 8.0 mph 17.7 mph 45 % 0.0 in
16:07 27.9 °F 14.9 °F 1024.3 in NNW 9.7 mph 17.7 mph 45 % 0.0 in
16:12 28.1 °F 15.0 °F 1023.9 in NE 8.0 mph 17.7 mph 45 % 0.0 in
16:17 28.6 °F 15.5 °F 1023.9 in NNE 9.7 mph 12.9 mph 45 % 0.0 in
16:22 28.8 °F 15.7 °F 1023.9 in East 12.9 mph 19.3 mph 45 % 0.0 in
16:27 28.6 °F 15.5 °F 1023.9 in ENE 6.4 mph 19.3 mph 45 % 0.0 in
16:32 28.7 °F 15.6 °F 1023.9 in West 3.2 mph 19.3 mph 45 % 0.0 in
16:37 28.9 °F 15.4 °F 1023.9 in NE 3.2 mph 17.7 mph 44 % 0.0 in
16:42 28.7 °F 15.6 °F 1023.9 in NNE 11.3 mph 17.7 mph 45 % 0.0 in
16:47 28.4 °F 15.3 °F 1023.6 in NNE 8.0 mph 17.7 mph 45 % 0.0 in
16:52 28.1 °F 15.0 °F 1023.6 in NE 8.0 mph 17.7 mph 45 % 0.0 in
16:57 28.5 °F 15.4 °F 1023.6 in NE 8.0 mph 16.1 mph 45 % 0.0 in
17:02 28.9 °F 15.8 °F 1023.6 in North 6.4 mph 16.1 mph 45 % 0.0 in
17:07 29.3 °F 15.8 °F 1023.6 in North 6.4 mph 16.1 mph 44 % 0.0 in
17:12 29.0 °F 14.8 °F 1023.6 in NE 6.4 mph 14.5 mph 42 % 0.0 in
17:17 29.1 °F 15.2 °F 1023.6 in NW 8.0 mph 14.5 mph 43 % 0.0 in
17:22 29.1 °F 15.6 °F 1023.2 in NNE 4.8 mph 14.5 mph 44 % 0.0 in
17:27 29.2 °F 15.3 °F 1023.2 in NNE 8.0 mph 20.9 mph 43 % 0.0 in
17:32 28.9 °F 15.1 °F 1023.2 in NW 8.0 mph 20.9 mph 43 % 0.0 in
17:37 29.3 °F 15.4 °F 1023.2 in NNW 4.8 mph 22.5 mph 43 % 0.0 in
17:42 28.9 °F 15.1 °F 1023.2 in NE 11.3 mph 22.5 mph 43 % 0.0 in
17:47 28.8 °F 15.3 °F 1023.2 in NE 6.4 mph 22.5 mph 44 % 0.0 in
17:52 28.7 °F 14.9 °F 1023.2 in NNE 11.3 mph 20.9 mph 43 % 0.0 in
17:57 28.8 °F 15.3 °F 1023.2 in Calm   19.3 mph 44 % 0.0 in
18:02 28.7 °F 15.2 °F 1023.2 in North 4.8 mph 16.1 mph 44 % 0.0 in
18:07 28.8 °F 15.3 °F 1023.2 in West 1.6 mph 16.1 mph 44 % 0.0 in
18:12 29.0 °F 15.9 °F 1023.2 in NE 14.5 mph 16.1 mph 45 % 0.0 in
18:17 29.1 °F 15.2 °F 1022.9 in NE 16.1 mph 16.1 mph 43 % 0.0 in
18:22 28.9 °F 15.4 °F 1022.9 in NNW 4.8 mph 17.7 mph 44 % 0.0 in
18:27 28.9 °F 15.1 °F 1022.9 in North 3.2 mph 22.5 mph 43 % 0.0 in
18:32 28.9 °F 14.7 °F 1022.9 in NNE 4.8 mph 22.5 mph 42 % 0.0 in
18:37 28.9 °F 14.7 °F 1022.9 in North 1.6 mph 19.3 mph 42 % 0.0 in
18:42 29.1 °F 15.2 °F 1022.9 in NNE 8.0 mph 16.1 mph 43 % 0.0 in
18:47 29.1 °F 15.2 °F 1022.9 in Calm   17.7 mph 43 % 0.0 in
18:57 28.4 °F 15.3 °F 1022.9 in NW 6.4 mph 19.3 mph 45 % 0.0 in
19:02 28.1 °F 15.0 °F 1022.9 in NNW 11.3 mph 19.3 mph 45 % 0.0 in
19:07 27.9 °F 15.2 °F 1022.6 in NNW 8.0 mph 19.3 mph 46 % 0.0 in
19:12 27.8 °F 15.5 °F 1022.6 in NNW 11.3 mph 14.5 mph 47 % 0.0 in
19:17 27.7 °F 15.7 °F 1022.6 in NW 9.7 mph 12.9 mph 48 % 0.0 in
19:22 27.7 °F 15.7 °F 1022.6 in WNW 4.8 mph 12.9 mph 48 % 0.0 in
19:27 27.8 °F 15.5 °F 1022.6 in North 6.4 mph 12.9 mph 47 % 0.0 in
19:32 27.7 °F 15.4 °F 1022.6 in NNW 6.4 mph 11.3 mph 47 % 0.0 in
19:42 27.9 °F 15.5 °F 1022.6 in North 6.4 mph 9.7 mph 47 % 0.0 in
19:47 27.8 °F 15.8 °F 1022.6 in North 6.4 mph 12.9 mph 48 % 0.0 in
19:52 27.9 °F 15.9 °F 1022.2 in NE 3.2 mph 12.9 mph 48 % 0.0 in
19:57 27.8 °F 15.8 °F 1022.2 in NE 3.2 mph 12.9 mph 48 % 0.0 in
20:02 27.8 °F 15.8 °F 1022.2 in NE 6.4 mph 12.9 mph 48 % 0.0 in
20:07 28.0 °F 16.0 °F 1022.2 in NE 4.8 mph 12.9 mph 48 % 0.0 in
20:12 28.2 °F 15.8 °F 1022.2 in NNE 4.8 mph 9.7 mph 47 % 0.0 in
20:17 28.2 °F 15.5 °F 1022.2 in North 8.0 mph 9.7 mph 46 % 0.0 in
20:22 28.0 °F 15.6 °F 1022.6 in NE 8.0 mph 14.5 mph 47 % 0.0 in
20:27 27.9 °F 15.5 °F 1022.6 in NE 4.8 mph 14.5 mph 47 % 0.0 in
20:32 27.9 °F 15.5 °F 1022.6 in NNE 3.2 mph 14.5 mph 47 % 0.0 in
20:37 27.8 °F 15.8 °F 1022.6 in North 6.4 mph 12.9 mph 48 % 0.0 in
20:42 27.8 °F 15.8 °F 1022.6 in NNE 3.2 mph 12.9 mph 48 % 0.0 in
20:47 27.8 °F 15.8 °F 1022.2 in NE 6.4 mph 12.9 mph 48 % 0.0 in
20:57 27.7 °F 15.7 °F 1022.2 in NNE 3.2 mph 8.0 mph 48 % 0.0 in
21:02 27.5 °F 15.8 °F 1022.2 in Calm   8.0 mph 49 % 0.0 in
21:07 27.2 °F 15.6 °F 1022.2 in NE 3.2 mph 6.4 mph 49 % 0.0 in
21:12 27.0 °F 15.7 °F 1022.2 in NE 4.8 mph 6.4 mph 50 % 0.0 in
21:17 26.7 °F 15.7 °F 1022.2 in NNE 1.6 mph 6.4 mph 51 % 0.0 in
21:22 26.4 °F 15.8 °F 1022.2 in NE 3.2 mph 6.4 mph 52 % 0.0 in
21:27 26.2 °F 15.9 °F 1022.2 in NE 3.2 mph 6.4 mph 53 % 0.0 in
21:32 25.9 °F 15.9 °F 1022.6 in ENE 1.6 mph 4.8 mph 54 % 0.0 in
21:37 25.6 °F 15.9 °F 1022.6 in Calm   4.8 mph 55 % 0.0 in
21:42 25.4 °F 16.0 °F 1022.6 in Calm   4.8 mph 56 % 0.0 in
21:47 25.3 °F 15.9 °F 1022.6 in Calm   3.2 mph 56 % 0.0 in
21:52 25.1 °F 16.0 °F 1022.6 in Calm     57 % 0.0 in
21:57 24.9 °F 15.8 °F 1022.6 in Calm     57 % 0.0 in
22:02 24.8 °F 16.0 °F 1022.6 in Calm     58 % 0.0 in
22:07 24.6 °F 15.8 °F 1022.6 in Calm     58 % 0.0 in
22:12 24.3 °F 15.8 °F 1022.6 in Calm     59 % 0.0 in
22:17 24.1 °F 15.8 °F 1022.6 in Calm     60 % 0.0 in
22:22 23.8 °F 15.8 °F 1022.6 in Calm     61 % 0.0 in
22:27 23.4 °F 15.7 °F 1022.6 in NW 1.6 mph 1.6 mph 62 % 0.0 in
22:37 23.1 °F 15.9 °F 1022.6 in Calm   1.6 mph 64 % 0.0 in
22:42 22.9 °F 15.7 °F 1022.6 in NW 1.6 mph 1.6 mph 64 % 0.0 in
22:52 22.6 °F 15.7 °F 1022.6 in NNW 1.6 mph 4.8 mph 65 % 0.0 in
22:57 22.6 °F 15.7 °F 1022.6 in NNW 3.2 mph 4.8 mph 65 % 0.0 in
23:02 22.6 °F 15.7 °F 1022.6 in NNW 3.2 mph 4.8 mph 65 % 0.0 in
23:07 22.4 °F 15.5 °F 1022.6 in Calm   3.2 mph 65 % 0.0 in
23:12 22.2 °F 15.5 °F 1022.6 in Calm   3.2 mph 66 % 0.0 in
23:22 21.9 °F 15.5 °F 1022.6 in NNW 1.6 mph 3.2 mph 67 % 0.0 in
23:27 21.9 °F 15.5 °F 1022.6 in NNW 1.6 mph 3.2 mph 67 % 0.0 in
23:32 21.9 °F 15.5 °F 1022.6 in Calm   3.2 mph 67 % 0.0 in
23:37 21.6 °F 15.4 °F 1022.6 in Calm   3.2 mph 68 % 0.0 in
23:42 21.3 °F 15.6 °F 1022.6 in Calm   3.2 mph 70 % 0.0 in
23:47 20.9 °F 15.7 °F 1022.6 in WNW 1.6 mph 1.6 mph 72 % 0.0 in
23:57 20.7 °F 15.5 °F 1022.6 in WNW 3.2 mph 3.2 mph 72 % 0.0 in
Meteo18
Compliments of Weather Underground - 4 mb

Script developed by  Jim McMurry - jmcmurry@mwt.net Adapted for the template by  Wim van der Kuil - Leuven-Template.eu

You find our weather info also at:

European Weather Network

Weather Underground

Equipment we use:

Weather-station
Davis Vue

Weather-program
Meteobridge

Weather-server
Raspberry PI 2 B+

Provider
1 and 1

Davis Vue

Meteobridge

Raspberry PI 2 B+

1 and 1